Time;durP1;ratioP1;P1;durP2;ratioP2;P2;SDS_P1;SDS_P2;PMS_P1;PMS_P2;Temp;Humidity;BMP_temperature;BMP_pressure;BME280_temperature;BME280_humidity;BME280_pressure;Samples;Min_cycle;Max_cycle;Signal;HPM_P1;HPM_P2
2023/07/09 00:02:24;;;;;;;3.28;2.78;;;20.70;54.30;;;;;;4930329;29;20043;-71
2023/07/09 00:04:49;;;;;;;5.25;2.28;;;20.70;56.20;;;;;;4932197;29;20054;-71
2023/07/09 00:07:24;;;;;;;4.20;2.28;;;20.60;56.50;;;;;;4919642;29;20051;-71
2023/07/09 00:09:50;;;;;;;2.60;2.42;;;20.60;57.90;;;;;;4926537;29;20074;-71
2023/07/09 00:12:18;;;;;;;5.70;2.47;;;20.60;58.70;;;;;;4925441;29;20534;-71
2023/07/09 00:14:44;;;;;;;4.30;2.38;;;20.60;61.10;;;;;;4931681;29;20047;-71
2023/07/09 00:17:37;;;;;;;2.67;2.47;;;20.50;61.90;;;;;;4933016;29;20509;-71
2023/07/09 00:20:11;;;;;;;2.42;2.33;;;20.50;64.10;;;;;;4914171;29;20055;-71
2023/07/09 00:22:36;;;;;;;3.35;2.88;;;20.40;65.90;;;;;;4916408;29;20059;-71
2023/07/09 00:25:03;;;;;;;2.75;2.55;;;20.40;68.30;;;;;;4932726;29;20497;-71
2023/07/09 00:27:32;;;;;;;3.95;2.38;;;20.40;68.80;;;;;;4922216;29;20062;-71
2023/07/09 00:29:58;;;;;;;2.55;2.35;;;20.30;67.40;;;;;;4930535;29;20441;-71
2023/07/09 00:32:25;;;;;;;4.60;2.40;;;20.30;70.00;;;;;;4915490;29;20043;-71
2023/07/09 00:34:52;;;;;;;3.67;2.30;;;20.30;69.60;;;;;;4913334;29;20052;-71
2023/07/09 00:37:27;;;;;;;3.95;2.70;;;20.30;70.00;;;;;;4904702;29;20078;-71
2023/07/09 00:39:53;;;;;;;5.95;3.05;;;20.30;69.00;;;;;;4931362;29;20086;-71
2023/07/09 00:42:21;;;;;;;2.72;2.55;;;20.20;69.90;;;;;;4932421;29;20047;-71
2023/07/09 00:44:51;;;;;;;6.35;3.38;;;20.30;70.10;;;;;;4930963;29;20510;-71
2023/07/09 00:48:15;;;;;;;2.65;2.55;;;20.20;70.60;;;;;;4932098;29;20046;-71
2023/07/09 00:50:53;;;;;;;2.60;2.40;;;20.20;72.10;;;;;;4910993;29;20132;-71
2023/07/09 00:53:29;;;;;;;3.58;2.47;;;20.20;72.40;;;;;;4945982;29;20573;-71
2023/07/09 00:56:01;;;;;;;3.30;2.55;;;20.10;72.60;;;;;;4935607;29;20062;-71
2023/07/09 00:58:28;;;;;;;2.67;2.38;;;20.10;74.10;;;;;;4931611;29;20394;-71
2023/07/09 01:01:03;;;;;;;3.25;2.47;;;20.00;75.50;;;;;;4931494;29;20182;-72
2023/07/09 01:03:35;;;;;;;4.20;2.67;;;19.90;76.90;;;;;;4932107;29;20195;-71
2023/07/09 01:06:03;;;;;;;3.08;2.78;;;20.00;77.50;;;;;;4930696;29;20055;-71
2023/07/09 01:08:34;;;;;;;7.10;3.70;;;20.00;78.70;;;;;;4932018;29;20446;-71
2023/07/09 01:11:00;;;;;;;4.13;2.80;;;19.90;79.00;;;;;;4914771;29;20179;-71
2023/07/09 01:13:32;;;;;;;3.70;2.53;;;19.90;79.80;;;;;;4932016;29;20066;-71
2023/07/09 01:15:58;;;;;;;2.35;2.25;;;19.90;80.20;;;;;;4931334;29;20482;-71
2023/07/09 01:18:24;;;;;;;3.10;2.72;;;19.90;81.10;;;;;;4912145;29;20119;-71
2023/07/09 01:21:00;;;;;;;2.63;2.20;;;19.80;82.00;;;;;;4943891;29;20522;-71
2023/07/09 01:23:27;;;;;;;3.85;2.80;;;19.70;83.80;;;;;;4947643;29;20048;-71
2023/07/09 01:25:55;;;;;;;5.13;2.75;;;19.70;86.70;;;;;;4913429;29;20527;-71
2023/07/09 01:28:22;;;;;;;3.37;3.07;;;19.60;88.30;;;;;;4917485;29;20043;-71
2023/07/09 01:30:53;;;;;;;3.55;2.58;;;19.60;90.00;;;;;;4932326;29;20408;-71
2023/07/09 01:33:21;;;;;;;3.58;3.28;;;19.50;91.30;;;;;;4949140;29;20402;-71
2023/07/09 01:35:47;;;;;;;4.10;3.05;;;19.40;92.30;;;;;;4931376;29;20136;-71
2023/07/09 01:38:13;;;;;;;3.50;2.97;;;19.30;93.70;;;;;;4932640;29;20055;-71
2023/07/09 01:40:39;;;;;;;4.43;2.70;;;19.30;95.20;;;;;;4929905;29;20474;-71
2023/07/09 01:43:06;;;;;;;6.85;3.13;;;19.20;96.60;;;;;;4902989;29;20051;-72
2023/07/09 01:45:34;;;;;;;2.70;2.50;;;19.20;97.90;;;;;;4914482;29;20067;-71
2023/07/09 01:48:01;;;;;;;2.85;2.65;;;19.20;98.40;;;;;;4932185;29;20061;-71
2023/07/09 01:50:26;;;;;;;3.17;2.90;;;19.20;99.10;;;;;;4930940;29;20603;-71
2023/07/09 01:52:54;;;;;;;8.52;2.60;;;19.20;99.30;;;;;;4931029;29;20055;-72
2023/07/09 01:55:20;;;;;;;4.50;3.33;;;19.20;99.30;;;;;;4918025;29;20047;-71
2023/07/09 01:57:46;;;;;;;3.13;2.90;;;19.20;99.20;;;;;;4934139;29;20505;-71
2023/07/09 02:00:15;;;;;;;4.30;3.30;;;19.20;99.00;;;;;;4922402;29;20048;-72
2023/07/09 02:02:43;;;;;;;3.35;2.67;;;19.20;98.80;;;;;;4917311;28;20398;-71
2023/07/09 02:05:10;;;;;;;3.90;3.10;;;19.20;98.80;;;;;;4935522;29;20497;-71
2023/07/09 02:07:36;;;;;;;3.58;2.55;;;19.20;99.20;;;;;;4934365;29;20039;-70
2023/07/09 02:10:02;;;;;;;4.57;3.10;;;19.10;98.60;;;;;;4941547;29;20059;-71
2023/07/09 02:12:28;;;;;;;3.38;2.88;;;19.10;98.90;;;;;;4930718;29;20498;-71
2023/07/09 02:14:55;;;;;;;3.20;2.90;;;19.10;99.30;;;;;;4934074;29;20043;-71
2023/07/09 02:17:20;;;;;;;3.63;2.60;;;19.00;99.70;;;;;;4935600;29;20051;-71
2023/07/09 02:19:46;;;;;;;3.50;3.20;;;19.00;99.90;;;;;;4933155;29;20047;-71
2023/07/09 02:22:12;;;;;;;4.07;3.65;;;19.00;99.90;;;;;;4935402;29;20107;-71
2023/07/09 02:24:38;;;;;;;3.30;2.97;;;18.90;99.90;;;;;;4933493;29;20536;-71
2023/07/09 02:27:08;;;;;;;3.60;3.30;;;18.90;99.90;;;;;;4935016;29;20043;-71
2023/07/09 02:29:34;;;;;;;4.13;2.90;;;18.90;99.90;;;;;;4934281;29;20058;-71
2023/07/09 02:32:01;;;;;;;5.95;3.85;;;18.90;99.90;;;;;;4933871;29;20088;-71
2023/07/09 02:34:29;;;;;;;3.25;2.95;;;18.90;99.90;;;;;;4935111;29;20070;-71
2023/07/09 02:36:58;;;;;;;3.20;2.85;;;18.90;99.90;;;;;;4934038;29;20134;-71
2023/07/09 02:39:25;;;;;;;3.67;3.40;;;18.90;99.90;;;;;;4952177;29;20498;-71
2023/07/09 02:41:51;;;;;;;4.38;3.28;;;18.90;99.90;;;;;;4932233;29;20081;-70
2023/07/09 02:44:18;;;;;;;3.40;3.05;;;18.90;99.90;;;;;;4935000;29;20494;-71
2023/07/09 02:46:44;;;;;;;4.30;3.15;;;18.90;99.90;;;;;;4934192;29;20405;-71
2023/07/09 02:49:12;;;;;;;7.22;3.38;;;18.80;99.90;;;;;;4933707;29;20043;-71
2023/07/09 02:51:38;;;;;;;4.57;3.58;;;18.90;99.90;;;;;;4918431;29;20047;-71
2023/07/09 02:54:06;;;;;;;4.03;3.38;;;18.90;99.90;;;;;;4933093;29;20857;-71
2023/07/09 02:56:32;;;;;;;5.63;3.50;;;18.90;99.90;;;;;;4934450;29;20051;-71
2023/07/09 02:58:58;;;;;;;3.90;3.55;;;18.90;99.90;;;;;;4932990;29;20055;-71
2023/07/09 03:01:27;;;;;;;4.90;3.78;;;18.90;99.90;;;;;;4919099;28;20043;-71
2023/07/09 03:03:57;;;;;;;7.50;4.10;;;18.90;99.90;;;;;;4918016;29;20114;-71
2023/07/09 03:06:24;;;;;;;3.85;3.38;;;18.90;99.90;;;;;;4947803;28;20126;-71
2023/07/09 03:08:51;;;;;;;3.83;3.38;;;18.90;99.90;;;;;;4951476;29;20505;-71
2023/07/09 03:11:17;;;;;;;3.90;3.60;;;18.90;99.90;;;;;;4919418;29;20047;-71
2023/07/09 03:13:45;;;;;;;4.28;3.47;;;19.00;99.90;;;;;;4934283;29;20126;-71
2023/07/09 03:16:11;;;;;;;5.72;3.30;;;18.90;99.90;;;;;;4932450;29;20463;-71
2023/07/09 03:18:37;;;;;;;3.65;3.30;;;18.90;99.90;;;;;;4934506;29;20047;-71
2023/07/09 03:21:03;;;;;;;3.30;2.97;;;18.90;99.90;;;;;;4916759;29;20591;-70
2023/07/09 03:23:29;;;;;;;5.20;3.22;;;18.90;99.90;;;;;;4933642;29;20163;-71
2023/07/09 03:25:56;;;;;;;7.05;3.67;;;18.80;99.90;;;;;;4933555;29;20078;-71
2023/07/09 03:28:22;;;;;;;5.45;3.20;;;18.80;99.90;;;;;;4913985;29;20048;-71
2023/07/09 03:30:49;;;;;;;3.15;2.85;;;18.70;99.90;;;;;;4926737;29;20058;-71
2023/07/09 03:33:16;;;;;;;4.95;3.17;;;18.70;99.90;;;;;;4931911;29;20107;-71
2023/07/09 03:35:42;;;;;;;3.42;3.13;;;18.60;99.90;;;;;;4914701;29;20040;-73
2023/07/09 03:38:10;;;;;;;3.85;3.40;;;18.60;99.90;;;;;;4929137;29;20654;-71
2023/07/09 03:40:37;;;;;;;3.40;3.10;;;18.60;99.90;;;;;;4951368;29;20039;-71
2023/07/09 03:43:03;;;;;;;4.43;3.13;;;18.60;99.90;;;;;;4917330;29;20536;-71
2023/07/09 03:45:30;;;;;;;3.42;3.13;;;18.50;99.90;;;;;;4933074;29;20429;-71
2023/07/09 03:47:56;;;;;;;3.35;3.10;;;18.60;99.90;;;;;;4933546;29;20131;-71
2023/07/09 03:50:23;;;;;;;6.80;3.65;;;18.60;99.90;;;;;;4916606;29;20103;-71
2023/07/09 03:52:48;;;;;;;3.85;3.47;;;18.60;99.90;;;;;;4933407;29;20438;-71
2023/07/09 03:55:14;;;;;;;4.47;3.42;;;18.60;99.90;;;;;;4943839;29;20428;-71
2023/07/09 03:57:41;;;;;;;9.52;3.30;;;18.60;99.90;;;;;;4924058;29;20522;-71
2023/07/09 04:00:12;;;;;;;3.65;3.35;;;18.60;99.90;;;;;;4949801;29;20065;-71
2023/07/09 04:02:39;;;;;;;4.72;3.28;;;18.60;99.90;;;;;;4916569;28;20070;-71
2023/07/09 04:05:08;;;;;;;4.15;3.53;;;18.60;99.90;;;;;;4933092;29;20051;-71
2023/07/09 04:07:34;;;;;;;4.67;4.07;;;18.70;99.90;;;;;;4916387;29;20129;-71
2023/07/09 04:10:00;;;;;;;7.97;3.72;;;18.80;99.90;;;;;;4924196;29;20044;-71
2023/07/09 04:12:26;;;;;;;4.82;3.92;;;18.70;99.90;;;;;;4943357;29;20049;-71
2023/07/09 04:14:52;;;;;;;5.13;4.15;;;18.80;99.90;;;;;;4932873;29;20111;-71
2023/07/09 04:17:18;;;;;;;5.28;3.97;;;18.80;99.90;;;;;;4931628;29;20093;-71
2023/07/09 04:19:43;;;;;;;10.40;4.55;;;18.90;99.90;;;;;;4932207;29;20047;-72
2023/07/09 04:22:12;;;;;;;5.95;3.95;;;18.90;99.90;;;;;;4932958;29;20059;-71
2023/07/09 04:24:38;;;;;;;8.07;3.60;;;18.90;99.90;;;;;;4915751;29;20191;-71
2023/07/09 04:27:04;;;;;;;4.43;3.85;;;19.00;99.90;;;;;;4929564;29;20922;-71
2023/07/09 04:29:33;;;;;;;4.90;4.40;;;19.10;99.90;;;;;;4927281;29;20055;-71
2023/07/09 04:31:59;;;;;;;5.50;4.15;;;19.10;99.90;;;;;;4932621;29;20057;-71
2023/07/09 04:34:25;;;;;;;8.90;4.47;;;19.20;99.90;;;;;;4931452;29;20047;-71
2023/07/09 04:36:51;;;;;;;9.93;4.15;;;19.10;99.90;;;;;;4931933;29;20039;-71
2023/07/09 04:39:17;;;;;;;5.70;3.97;;;19.20;99.90;;;;;;4949661;29;20051;-71
2023/07/09 04:41:43;;;;;;;5.68;4.30;;;19.20;99.90;;;;;;4931566;29;20043;-71
2023/07/09 04:44:09;;;;;;;11.20;4.30;;;19.20;99.00;;;;;;4932588;29;20142;-71
2023/07/09 04:46:35;;;;;;;7.82;4.75;;;19.30;97.60;;;;;;4913066;29;20127;-71
2023/07/09 04:49:01;;;;;;;6.80;4.72;;;19.30;96.80;;;;;;4932320;29;20566;-71
2023/07/09 04:51:27;;;;;;;4.53;4.10;;;19.30;95.20;;;;;;4914973;29;20047;-71
2023/07/09 04:53:52;;;;;;;4.50;4.10;;;19.40;95.20;;;;;;4932640;29;20150;-71
2023/07/09 04:56:19;;;;;;;6.07;4.13;;;19.40;94.80;;;;;;4915715;29;20474;-71
2023/07/09 04:58:45;;;;;;;4.75;4.07;;;19.50;95.00;;;;;;4949021;29;20035;-71
2023/07/09 05:01:10;;;;;;;7.80;4.90;;;19.50;94.70;;;;;;4949260;29;20057;-71
2023/07/09 05:03:36;;;;;;;4.63;4.22;;;19.60;94.80;;;;;;4927523;29;20494;-71
2023/07/09 05:06:03;;;;;;;9.10;4.32;;;19.60;93.70;;;;;;4931974;29;20055;-71
2023/07/09 05:08:29;;;;;;;6.32;4.40;;;19.70;93.80;;;;;;4930299;29;20411;-71
2023/07/09 05:10:57;;;;;;;8.63;4.70;;;19.70;93.90;;;;;;4916546;29;20122;-71
2023/07/09 05:13:24;;;;;;;8.35;4.97;;;19.80;94.60;;;;;;4931954;29;20069;-71
2023/07/09 05:15:51;;;;;;;4.82;4.30;;;19.90;95.00;;;;;;4949074;29;20391;-71
2023/07/09 05:18:18;;;;;;;5.80;4.35;;;20.00;95.20;;;;;;4915913;29;20043;-70
2023/07/09 05:20:46;;;;;;;4.88;4.32;;;20.00;93.50;;;;;;4930763;29;20051;-71
2023/07/09 05:23:11;;;;;;;5.63;4.63;;;20.10;93.90;;;;;;4931711;29;20155;-71
2023/07/09 05:25:37;;;;;;;5.57;4.65;;;20.10;94.10;;;;;;4930531;29;20126;-71
2023/07/09 05:28:04;;;;;;;7.95;5.28;;;20.20;93.10;;;;;;4931913;29;20094;-71
2023/07/09 05:30:29;;;;;;;5.55;4.82;;;20.20;92.40;;;;;;4914653;29;20048;-71
2023/07/09 05:32:59;;;;;;;5.50;4.55;;;20.30;92.20;;;;;;4898699;29;20047;-71
2023/07/09 05:35:26;;;;;;;6.43;4.70;;;20.30;92.60;;;;;;4931511;29;20051;-71
2023/07/09 05:37:54;;;;;;;6.28;4.43;;;20.40;92.70;;;;;;4931189;29;20086;-71
2023/07/09 05:40:21;;;;;;;11.50;5.78;;;20.40;92.50;;;;;;4931813;29;20148;-70
2023/07/09 05:42:48;;;;;;;7.72;4.60;;;20.50;93.30;;;;;;4914545;29;20051;-71
2023/07/09 05:45:15;;;;;;;10.48;5.32;;;20.50;93.10;;;;;;4931569;29;20094;-70
2023/07/09 05:47:41;;;;;;;8.70;4.43;;;20.60;91.80;;;;;;4930648;29;20118;-70
2023/07/09 05:50:08;;;;;;;9.07;4.65;;;20.60;91.60;;;;;;4931321;29;20098;-71
2023/07/09 05:52:33;;;;;;;7.10;5.28;;;20.70;91.90;;;;;;4931169;29;20130;-70
2023/07/09 05:55:01;;;;;;;5.78;4.65;;;20.80;91.50;;;;;;4914972;29;20150;-71
2023/07/09 05:57:27;;;;;;;7.72;5.15;;;20.80;91.30;;;;;;4932265;29;20051;-70
2023/07/09 05:59:52;;;;;;;5.10;4.60;;;20.90;91.50;;;;;;4913928;29;20525;-71
2023/07/09 06:02:20;;;;;;;7.50;4.80;;;21.00;90.80;;;;;;4930752;29;20134;-70
2023/07/09 06:04:49;;;;;;;5.68;5.03;;;21.10;88.80;;;;;;4930126;29;20052;-70
2023/07/09 06:07:15;;;;;;;7.13;5.00;;;21.20;83.50;;;;;;4931450;29;20037;-70
2023/07/09 06:09:42;;;;;;;6.85;5.35;;;21.20;82.70;;;;;;4925993;29;20064;-70
2023/07/09 06:12:08;;;;;;;6.50;5.32;;;21.30;80.20;;;;;;4931142;29;20103;-70
2023/07/09 06:14:34;;;;;;;5.55;5.03;;;21.40;80.00;;;;;;4928930;29;20158;-70
2023/07/09 06:17:01;;;;;;;9.90;5.72;;;21.50;81.40;;;;;;4902905;29;20126;-70
2023/07/09 06:19:26;;;;;;;7.25;5.82;;;21.60;84.80;;;;;;4928673;29;20079;-70
2023/07/09 06:21:52;;;;;;;10.50;5.90;;;21.70;88.30;;;;;;4914037;29;20149;-71
2023/07/09 06:24:18;;;;;;;7.95;5.38;;;21.80;82.60;;;;;;4915173;29;20502;-70
2023/07/09 06:26:44;;;;;;;6.30;5.25;;;21.90;82.90;;;;;;4930239;29;20047;-71
2023/07/09 06:29:10;;;;;;;6.68;5.38;;;22.00;78.60;;;;;;4924197;29;20490;-70
2023/07/09 06:31:37;;;;;;;5.43;4.90;;;22.10;75.10;;;;;;4924762;29;20058;-71
2023/07/09 06:34:03;;;;;;;7.50;5.45;;;22.20;77.00;;;;;;4939327;29;20062;-70
2023/07/09 06:36:29;;;;;;;10.43;6.05;;;22.30;78.90;;;;;;4931559;29;20133;-70
2023/07/09 06:38:55;;;;;;;5.72;5.22;;;22.40;74.10;;;;;;4913602;29;20043;-71
2023/07/09 06:41:21;;;;;;;9.80;5.57;;;22.40;76.40;;;;;;4932927;29;20050;-70
2023/07/09 06:43:46;;;;;;;7.97;5.70;;;22.50;77.50;;;;;;4933633;29;20511;-71
2023/07/09 06:46:14;;;;;;;10.65;5.85;;;22.50;79.40;;;;;;4952098;29;20075;-71
2023/07/09 06:48:40;;;;;;;7.88;5.60;;;22.60;82.50;;;;;;4933298;29;20047;-70
2023/07/09 06:51:06;;;;;;;6.38;5.68;;;22.70;78.70;;;;;;4918233;29;20050;-70
2023/07/09 06:53:33;;;;;;;6.13;4.72;;;22.80;79.00;;;;;;4934380;29;20114;-70
2023/07/09 06:55:59;;;;;;;7.72;5.25;;;22.90;84.20;;;;;;4933235;29;20051;-70
2023/07/09 06:58:27;;;;;;;6.55;4.75;;;23.00;79.30;;;;;;4918564;29;20090;-70
2023/07/09 07:00:54;;;;;;;5.22;4.40;;;23.10;78.00;;;;;;4932570;29;20047;-70
2023/07/09 07:03:21;;;;;;;7.25;4.50;;;23.20;75.60;;;;;;4934403;29;20055;-70
2023/07/09 07:05:49;;;;;;;8.07;4.65;;;23.30;74.40;;;;;;4933494;29;20063;-69
2023/07/09 07:08:17;;;;;;;5.32;4.80;;;23.40;75.30;;;;;;4933491;29;20055;-71
2023/07/09 07:10:44;;;;;;;6.83;5.13;;;23.60;75.80;;;;;;4917629;29;20061;-70
2023/07/09 07:13:10;;;;;;;7.53;4.38;;;23.70;78.70;;;;;;4933173;29;20319;-70
2023/07/09 07:15:37;;;;;;;4.93;4.50;;;23.90;68.00;;;;;;4932930;29;20093;-71
2023/07/09 07:18:04;;;;;;;6.50;4.75;;;24.10;69.80;;;;;;4949460;29;20085;-70
2023/07/09 07:20:30;;;;;;;6.32;4.95;;;24.20;67.00;;;;;;4951158;29;20047;-70
2023/07/09 07:22:56;;;;;;;5.80;4.40;;;24.40;60.90;;;;;;4949881;29;20058;-71
2023/07/09 07:25:23;;;;;;;8.10;4.53;;;24.60;53.80;;;;;;4949964;29;20094;-71
2023/07/09 07:27:49;;;;;;;7.47;4.70;;;24.70;51.90;;;;;;4933616;29;20091;-70
2023/07/09 07:30:16;;;;;;;11.25;4.45;;;24.90;49.50;;;;;;4916258;29;20035;-71
2023/07/09 07:32:47;;;;;;;5.97;4.13;;;25.00;46.10;;;;;;4943364;29;20100;-70
2023/07/09 07:35:13;;;;;;;6.38;4.30;;;25.10;37.90;;;;;;4911822;29;20054;-70
2023/07/09 07:37:40;;;;;;;5.95;4.68;;;25.30;27.00;;;;;;4924209;28;20067;-70
2023/07/09 07:40:07;;;;;;;7.60;4.57;;;25.50;18.30;;;;;;4929764;29;20047;-71
2023/07/09 07:42:32;;;;;;;6.07;5.20;;;25.80;22.30;;;;;;4935298;29;20050;-71
2023/07/09 07:44:58;;;;;;;7.55;4.97;;;26.10;17.50;;;;;;4929876;29;20040;-70
2023/07/09 07:47:25;;;;;;;8.45;5.13;;;26.40;1.00;;;;;;4902441;29;20044;-71
2023/07/09 07:49:51;;;;;;;8.57;5.25;;;26.70;1.00;;;;;;4933781;29;20102;-70
2023/07/09 07:52:18;;;;;;;8.82;5.47;;;27.00;1.00;;;;;;4917662;29;20494;-71
2023/07/09 07:54:44;;;;;;;11.68;4.97;;;27.40;1.00;;;;;;4926601;29;20043;-71
2023/07/09 07:57:10;;;;;;;8.00;5.03;;;27.70;1.00;;;;;;4929850;29;20141;-71
2023/07/09 07:59:37;;;;;;;10.50;5.38;;;27.90;1.00;;;;;;4927251;29;20130;-71
2023/07/09 08:02:04;;;;;;;9.15;5.40;;;28.20;1.00;;;;;;4927066;29;20050;-71
2023/07/09 08:04:31;;;;;;;7.43;5.10;;;28.60;1.00;;;;;;4929766;29;20123;-71
2023/07/09 08:06:56;;;;;;;10.75;5.18;;;28.80;1.00;;;;;;4917212;29;20063;-70
2023/07/09 08:09:22;;;;;;;6.07;5.00;;;29.00;1.00;;;;;;4927072;29;20124;-70
2023/07/09 08:11:49;;;;;;;8.02;5.00;;;29.30;1.00;;;;;;4918624;29;20069;-71
2023/07/09 08:14:15;;;;;;;6.03;4.72;;;29.20;1.00;;;;;;4928094;29;20498;-70
2023/07/09 08:16:41;;;;;;;8.98;4.88;;;29.20;1.00;;;;;;4932555;29;20565;-70
2023/07/09 08:19:06;;;;;;;5.20;3.97;;;29.30;1.00;;;;;;4920871;29;20127;-71
2023/07/09 08:21:32;;;;;;;6.43;4.38;;;29.20;1.00;;;;;;4925935;29;20100;-71
2023/07/09 08:23:58;;;;;;;5.32;4.47;;;29.10;1.00;;;;;;4930801;29;20380;-71
2023/07/09 08:26:24;;;;;;;7.80;4.53;;;28.90;1.00;;;;;;4897018;29;20047;-71
2023/07/09 08:28:51;;;;;;;7.07;5.05;;;28.80;1.00;;;;;;4943724;29;20055;-71
2023/07/09 08:31:17;;;;;;;7.22;4.07;;;28.80;1.00;;;;;;4930549;29;20054;-71
2023/07/09 08:33:42;;;;;;;6.07;4.15;;;28.80;1.00;;;;;;4932846;29;20873;-72
2023/07/09 08:36:08;;;;;;;5.88;4.22;;;28.90;1.00;;;;;;4929982;29;20047;-70
2023/07/09 08:38:34;;;;;;;7.68;4.20;;;29.20;1.00;;;;;;4932133;29;20047;-70
2023/07/09 08:41:06;;;;;;;4.88;4.32;;;29.50;1.00;;;;;;4947237;28;20043;-70
2023/07/09 08:44:00;;;;;;;6.25;3.83;;;29.80;1.00;;;;;;4948356;29;20110;-70
2023/07/09 08:46:42;;;;;;;5.85;4.05;;;30.00;1.00;;;;;;4932170;29;20184;-70
2023/07/09 08:49:26;;;;;;;7.82;4.13;;;30.20;1.00;;;;;;4948247;29;20047;-69
2023/07/09 08:51:53;;;;;;;9.77;4.53;;;30.40;1.00;;;;;;4949776;29;20501;-70
2023/07/09 08:54:36;;;;;;;4.30;3.90;;;30.70;1.00;;;;;;4930770;29;20163;-70
2023/07/09 08:57:20;;;;;;;10.15;4.97;;;30.90;1.00;;;;;;4928729;29;20055;-70
2023/07/09 08:59:49;;;;;;;5.10;3.90;;;30.80;1.00;;;;;;4949797;29;20059;-70
2023/07/09 09:02:40;;;;;;;6.88;3.83;;;30.80;1.00;;;;;;4930274;29;20129;-70
2023/07/09 09:05:08;;;;;;;4.95;4.15;;;30.70;1.00;;;;;;4936216;28;20059;-70
2023/07/09 09:07:42;;;;;;;5.78;3.95;;;30.60;1.00;;;;;;4926579;29;20058;-69
2023/07/09 09:10:20;;;;;;;5.07;4.32;;;30.50;1.00;;;;;;4932650;29;20150;-70
2023/07/09 09:12:46;;;;;;;5.50;4.30;;;30.50;1.00;;;;;;4931083;29;20051;-69
2023/07/09 09:15:20;;;;;;;5.72;4.00;;;30.50;1.00;;;;;;4913103;28;20490;-69
2023/07/09 09:17:52;;;;;;;7.22;4.55;;;30.50;1.00;;;;;;4931655;29;20050;-70
2023/07/09 09:20:22;;;;;;;5.72;3.75;;;30.50;1.00;;;;;;4948718;29;20517;-69
2023/07/09 09:23:06;;;;;;;9.35;3.75;;;30.50;1.00;;;;;;4947734;29;20126;-69
2023/07/09 09:25:34;;;;;;;4.43;3.97;;;30.50;1.00;;;;;;4915430;29;20044;-69
2023/07/09 09:28:01;;;;;;;7.15;4.03;;;30.50;1.00;;;;;;4929489;29;20047;-69
2023/07/09 09:30:29;;;;;;;8.27;4.00;;;30.60;1.00;;;;;;4946741;29;20732;-69
2023/07/09 09:32:57;;;;;;;4.07;3.67;;;30.70;1.00;;;;;;4922494;29;20055;-70
2023/07/09 09:35:35;;;;;;;4.90;3.78;;;30.80;1.00;;;;;;4929336;29;20051;-69
2023/07/09 09:38:02;;;;;;;5.88;3.90;;;30.90;1.00;;;;;;4937969;29;20118;-69
2023/07/09 09:40:33;;;;;;;9.05;5.28;;;31.10;1.00;;;;;;4928921;29;20576;-70
2023/07/09 09:43:00;;;;;;;6.13;4.32;;;31.20;1.00;;;;;;4948427;29;20498;-70
2023/07/09 09:45:33;;;;;;;4.28;3.65;;;31.20;1.00;;;;;;4935447;29;20567;-70
2023/07/09 09:48:01;;;;;;;4.82;3.63;;;31.20;1.00;;;;;;4948747;29;20126;-70
2023/07/09 09:50:31;;;;;;;5.57;3.95;;;31.20;1.00;;;;;;4946874;29;20058;-70
2023/07/09 09:53:01;;;;;;;4.68;3.85;;;31.20;1.00;;;;;;4908811;29;20063;-70
2023/07/09 09:55:32;;;;;;;4.88;3.75;;;31.10;1.00;;;;;;4948246;29;20066;-70
2023/07/09 09:57:58;;;;;;;5.30;4.05;;;31.10;1.00;;;;;;4927946;29;20410;-70
2023/07/09 10:00:28;;;;;;;6.85;3.90;;;31.10;1.00;;;;;;4928828;29;20047;-70
2023/07/09 10:03:02;;;;;;;6.25;3.80;;;31.10;1.00;;;;;;4929569;29;20531;-69
2023/07/09 10:05:45;;;;;;;10.82;4.53;;;31.00;1.00;;;;;;4961766;28;20514;-70
2023/07/09 10:08:26;;;;;;;3.90;3.35;;;31.00;1.00;;;;;;4915675;29;20067;-69
2023/07/09 10:11:07;;;;;;;4.57;3.72;;;31.00;1.00;;;;;;4936232;28;20047;-70
2023/07/09 10:13:40;;;;;;;7.57;3.65;;;30.90;1.00;;;;;;4944702;29;20501;-69
2023/07/09 10:16:19;;;;;;;8.82;4.25;;;31.00;1.00;;;;;;4926538;29;20043;-69
2023/07/09 10:19:04;;;;;;;6.50;4.15;;;31.00;1.00;;;;;;4927980;29;20090;-70
2023/07/09 10:21:37;;;;;;;6.13;4.03;;;31.00;1.00;;;;;;4947244;29;20051;-70
2023/07/09 10:24:33;;;;;;;6.20;4.90;;;31.00;1.00;;;;;;4950273;29;20442;-70
2023/07/09 10:27:29;;;;;;;5.97;4.47;;;30.90;1.00;;;;;;4952319;29;20376;-69
2023/07/09 10:30:03;;;;;;;6.65;4.63;;;30.30;1.00;;;;;;4952650;29;20049;-69
2023/07/09 10:32:57;;;;;;;5.03;4.38;;;29.70;1.00;;;;;;4930383;28;20337;-69
2023/07/09 10:35:29;;;;;;;8.75;5.38;;;29.30;1.00;;;;;;4918191;29;20086;-70
2023/07/09 10:38:32;;;;;;;6.75;3.90;;;29.20;1.00;;;;;;4945797;29;20050;-69
2023/07/09 10:41:00;;;;;;;5.93;4.20;;;29.20;1.00;;;;;;4925311;29;20050;-69
2023/07/09 10:43:37;;;;;;;6.85;4.10;;;29.10;1.00;;;;;;4949516;29;20046;-69
2023/07/09 10:46:20;;;;;;;10.43;4.07;;;29.00;1.00;;;;;;4949351;29;20054;-69
2023/07/09 10:48:49;;;;;;;5.03;4.20;;;29.00;1.00;;;;;;4948313;29;20095;-69
2023/07/09 10:51:53;;;;;;;6.82;4.45;;;29.00;1.00;;;;;;4918080;29;20138;-69
2023/07/09 10:54:34;;;;;;;5.97;4.63;;;28.80;1.00;;;;;;4844280;29;20059;-69
2023/07/09 10:57:31;;;;;;;4.40;4.00;;;28.70;1.00;;;;;;4921955;29;20072;-69
2023/07/09 10:59:58;;;;;;;5.30;4.40;;;28.70;1.00;;;;;;4927514;29;20142;-69
2023/07/09 11:02:30;;;;;;;4.80;4.18;;;28.60;1.00;;;;;;4948113;29;20054;-68
2023/07/09 11:05:01;;;;;;;5.15;4.28;;;28.70;1.00;;;;;;4931368;29;20087;-69
2023/07/09 11:07:35;;;;;;;5.18;4.22;;;28.80;1.00;;;;;;4921028;29;20940;-69
2023/07/09 11:10:09;;;;;;;6.32;4.05;;;28.90;1.00;;;;;;4922839;29;20055;-69
2023/07/09 11:12:41;;;;;;;5.78;4.47;;;29.00;1.00;;;;;;4933389;29;20111;-68
2023/07/09 11:15:16;;;;;;;6.95;4.68;;;29.00;1.00;;;;;;4949507;29;20043;-69
2023/07/09 11:17:46;;;;;;;7.97;4.78;;;28.90;1.00;;;;;;4950852;29;20099;-69
2023/07/09 11:20:35;;;;;;;6.88;4.50;;;28.80;1.00;;;;;;4929713;29;20043;-69
2023/07/09 11:23:19;;;;;;;5.30;4.45;;;28.70;1.00;;;;;;4949700;28;20047;-69
2023/07/09 11:25:48;;;;;;;5.97;4.50;;;28.60;1.00;;;;;;4950535;29;20047;-69
2023/07/09 11:28:14;;;;;;;7.10;4.18;;;28.60;1.00;;;;;;4919746;29;20043;-68
2023/07/09 11:30:51;;;;;;;5.32;4.25;;;28.60;1.00;;;;;;4949652;29;20127;-69
2023/07/09 11:33:25;;;;;;;7.97;4.83;;;28.60;1.00;;;;;;4960392;28;20051;-69
2023/07/09 11:35:54;;;;;;;9.25;5.70;;;28.70;1.00;;;;;;4931330;29;20294;-69
2023/07/09 11:38:24;;;;;;;7.68;6.25;;;28.80;1.00;;;;;;4949524;29;20051;-69
2023/07/09 11:40:53;;;;;;;8.57;6.45;;;28.70;1.00;;;;;;4930318;29;20039;-69
2023/07/09 11:43:34;;;;;;;8.13;5.90;;;28.60;1.00;;;;;;4932416;29;20054;-69
2023/07/09 11:46:23;;;;;;;8.98;5.75;;;28.50;1.00;;;;;;4929635;29;20059;-69
2023/07/09 11:48:52;;;;;;;6.47;5.35;;;28.50;1.00;;;;;;4950459;29;20066;-69
2023/07/09 11:51:26;;;;;;;11.18;6.50;;;28.50;1.00;;;;;;4950068;29;20122;-69
2023/07/09 11:53:55;;;;;;;8.88;6.22;;;28.50;1.00;;;;;;4942042;28;20053;-69
2023/07/09 11:56:24;;;;;;;7.47;5.63;;;28.40;1.00;;;;;;4930561;29;20055;-69
2023/07/09 11:58:51;;;;;;;9.40;4.80;;;28.40;1.00;;;;;;4935497;29;20067;-69
2023/07/09 12:01:22;;;;;;;7.43;5.22;;;28.50;1.00;;;;;;4950090;29;20141;-69
2023/07/09 12:03:49;;;;;;;8.25;5.15;;;28.50;1.00;;;;;;4946742;29;20046;-68
2023/07/09 12:06:29;;;;;;;6.60;4.70;;;28.50;1.00;;;;;;4932115;29;20066;-68
2023/07/09 12:08:56;;;;;;;8.90;5.25;;;28.60;1.00;;;;;;4943998;29;20374;-69
2023/07/09 12:11:30;;;;;;;7.80;4.72;;;28.70;1.00;;;;;;4935789;29;20040;-69
2023/07/09 12:14:11;;;;;;;5.43;4.85;;;28.80;1.00;;;;;;4949300;29;20053;-69
2023/07/09 12:16:42;;;;;;;6.20;5.07;;;28.80;1.00;;;;;;4948246;29;20054;-69
2023/07/09 12:19:11;;;;;;;5.82;5.20;;;28.80;1.00;;;;;;4931126;29;20049;-69
2023/07/09 12:21:39;;;;;;;6.43;4.93;;;28.80;1.00;;;;;;4949447;29;20116;-69
2023/07/09 12:24:22;;;;;;;6.07;5.43;;;28.90;1.00;;;;;;4946724;29;20062;-70
2023/07/09 12:26:58;;;;;;;5.20;4.70;;;28.90;1.00;;;;;;4932278;29;20051;-70
2023/07/09 12:29:25;;;;;;;7.07;4.65;;;28.90;1.00;;;;;;4947552;29;20051;-70
2023/07/09 12:31:51;;;;;;;5.15;4.65;;;28.80;1.00;;;;;;4948948;29;20790;-70
2023/07/09 12:34:18;;;;;;;4.70;4.28;;;28.90;1.00;;;;;;4952038;28;20063;-70
2023/07/09 12:36:49;;;;;;;5.93;4.28;;;28.90;1.00;;;;;;4949307;29;20056;-71
2023/07/09 12:39:20;;;;;;;8.20;4.93;;;29.00;1.00;;;;;;4932382;29;20505;-71
2023/07/09 12:41:46;;;;;;;5.20;4.63;;;29.00;1.00;;;;;;4947383;29;20045;-71
2023/07/09 12:44:17;;;;;;;9.05;4.63;;;28.80;1.00;;;;;;4912345;29;20043;-71
2023/07/09 12:46:45;;;;;;;7.25;4.90;;;28.70;1.00;;;;;;4948356;29;20506;-71
2023/07/09 12:49:24;;;;;;;5.72;4.93;;;28.40;1.00;;;;;;4929922;28;20620;-71
2023/07/09 12:51:50;;;;;;;9.13;5.00;;;28.30;1.00;;;;;;4930260;29;20051;-71
2023/07/09 12:54:21;;;;;;;6.55;5.45;;;28.10;1.00;;;;;;4928136;29;20045;-70
2023/07/09 12:56:47;;;;;;;6.57;4.95;;;27.90;1.00;;;;;;4929037;29;20058;-71
2023/07/09 12:59:17;;;;;;;6.60;5.03;;;27.80;1.00;;;;;;4944153;29;20042;-70
2023/07/09 13:01:54;;;;;;;9.52;4.68;;;27.80;1.00;;;;;;4923180;29;20545;-71
2023/07/09 13:04:20;;;;;;;6.63;5.00;;;27.80;1.00;;;;;;4931974;29;20047;-70